Terminal Aerodrome Forecast
Issued by NWS

Home | Current Version | Previous Version | Text Only | Print | Product List | Glossary On
Versions: 1 2 3 4 5 6 7 8 9 10 11 12 13 14 15 16 17 18 19 20 21 22 23 24 25
538
FTUS43 KPAH 182343
TAFCGI
TAF
KCGI 182343Z 1900/1924 20004KT P6SM SCT013 BKN030
     FM190400 20003KT 3SM BR SCT005 BKN015
      TEMPO 1906/1910 1SM BR BKN005
     FM191000 00000KT 1SM BR OVC005
      TEMPO 1910/1913 1/2SM FG BKN001
     FM191400 19005KT P6SM SCT015
     FM191800 17005KT P6SM SCT250=

USA.gov is the U.S. government's official web portal to all federal, state and local government web resources and services.